createdAt,value
2022-08-20T00:01:01.661Z,10.70
2022-08-20T00:02:43.178Z,9.97
2022-08-20T00:04:15.364Z,10.80
2022-08-20T00:05:53.074Z,9.30
2022-08-20T00:07:29.683Z,13.40
2022-08-20T00:09:01.398Z,11.77
2022-08-20T00:10:36.205Z,16.07
2022-08-20T00:12:10.535Z,16.70
2022-08-20T00:13:50.403Z,11.93
2022-08-20T00:15:26.323Z,9.80
2022-08-20T00:17:00.108Z,13.27
2022-08-20T00:18:32.199Z,15.73
2022-08-20T00:20:10.246Z,11.00
2022-08-20T00:21:41.967Z,12.63
2022-08-20T00:23:15.271Z,13.03
2022-08-20T00:24:46.956Z,9.70
2022-08-20T00:26:19.671Z,12.37
2022-08-20T00:27:51.378Z,13.23
2022-08-20T00:29:23.169Z,12.73
2022-08-20T00:30:55.206Z,13.80
2022-08-20T00:32:26.920Z,15.83
2022-08-20T00:33:58.776Z,11.07
2022-08-20T00:35:35.216Z,12.63
2022-08-20T00:37:07.460Z,12.17
2022-08-20T00:38:41.504Z,11.33
2022-08-20T00:40:22.222Z,15.23
2022-08-20T00:41:54.832Z,11.30
2022-08-20T00:43:40.017Z,12.60
2022-08-20T00:45:12.774Z,10.97
2022-08-20T00:46:45.607Z,13.97
2022-08-20T00:48:17.422Z,12.70
2022-08-20T00:49:49.110Z,16.10
2022-08-20T00:51:46.389Z,11.97
2022-08-20T00:53:20.205Z,12.40
2022-08-20T00:54:55.505Z,11.40
2022-08-20T00:56:28.113Z,11.80
2022-08-20T00:58:06.062Z,12.10
2022-08-20T00:59:40.270Z,13.13
2022-08-20T01:01:14.481Z,13.00
2022-08-20T01:02:47.880Z,10.73
2022-08-20T01:04:20.213Z,17.33
2022-08-20T01:05:52.781Z,12.03
2022-08-20T01:07:32.483Z,11.43
2022-08-20T01:09:05.513Z,13.17
2022-08-20T01:10:40.948Z,14.80
2022-08-20T01:12:16.498Z,11.87
2022-08-20T01:13:48.864Z,15.30
2022-08-20T01:15:26.950Z,12.43
2022-08-20T01:17:06.869Z,10.77
2022-08-20T01:18:39.184Z,10.70
2022-08-20T01:20:18.496Z,13.80
2022-08-20T01:21:51.912Z,13.43
2022-08-20T01:23:55.314Z,12.83
2022-08-20T01:25:44.037Z,13.30
2022-08-20T01:27:15.794Z,11.67
2022-08-20T01:28:52.277Z,14.83
2022-08-20T01:30:26.641Z,15.10
2022-08-20T01:32:01.449Z,14.60
2022-08-20T01:33:37.146Z,13.97
2022-08-20T01:35:10.278Z,16.13
2022-08-20T01:36:51.671Z,13.57
2022-08-20T01:38:24.046Z,15.47
2022-08-20T01:39:55.841Z,18.87
2022-08-20T01:41:49.156Z,13.87
2022-08-20T01:43:23.652Z,16.40
2022-08-20T01:44:55.420Z,14.77
2022-08-20T01:46:30.820Z,17.73
2022-08-20T01:48:02.890Z,13.43
2022-08-20T01:49:44.296Z,16.93
2022-08-20T01:51:22.358Z,12.90
2022-08-20T01:53:24.255Z,16.73
2022-08-20T01:54:56.780Z,15.27
2022-08-20T01:56:31.730Z,20.13
2022-08-20T01:58:04.177Z,16.10
2022-08-20T01:59:35.974Z,17.87
2022-08-20T02:01:07.816Z,17.67
2022-08-20T02:02:40.561Z,15.10
2022-08-20T02:04:15.297Z,15.40
2022-08-20T02:05:47.311Z,17.90
2022-08-20T02:07:21.896Z,15.67
2022-08-20T02:09:01.742Z,16.37
2022-08-20T02:10:33.630Z,18.30
2022-08-20T02:12:08.733Z,17.30
2022-08-20T02:13:40.426Z,18.40
2022-08-20T02:15:12.989Z,19.00
2022-08-20T02:16:54.977Z,19.73
2022-08-20T02:18:27.127Z,16.60
2022-08-20T02:20:03.157Z,20.00
2022-08-20T02:21:37.657Z,20.17
2022-08-20T02:23:11.978Z,24.00
2022-08-20T02:24:44.166Z,23.50
2022-08-20T02:26:19.035Z,19.30
2022-08-20T02:27:53.546Z,19.50
2022-08-20T02:29:26.073Z,18.30
2022-08-20T02:31:02.882Z,22.17
2022-08-20T02:32:34.637Z,17.20
2022-08-20T02:34:22.459Z,20.50
2022-08-20T02:35:56.364Z,20.30
2022-08-20T02:37:28.114Z,19.63
2022-08-20T02:38:59.950Z,22.17
2022-08-20T02:40:32.568Z,22.00
2022-08-20T02:42:05.122Z,21.40
2022-08-20T02:43:37.398Z,25.10
2022-08-20T02:45:14.991Z,22.93
2022-08-20T02:46:50.843Z,22.20
2022-08-20T02:48:22.933Z,21.33
2022-08-20T02:49:55.460Z,21.50
2022-08-20T02:51:30.430Z,21.03
2022-08-20T02:53:02.606Z,22.50
2022-08-20T02:54:35.268Z,23.73
2022-08-20T02:56:08.236Z,20.77
2022-08-20T02:57:40.320Z,20.23
2022-08-20T02:59:19.031Z,21.57
2022-08-20T03:00:51.696Z,19.83
2022-08-20T03:02:23.494Z,23.30
2022-08-20T03:03:58.976Z,20.53
2022-08-20T03:05:30.718Z,20.37
2022-08-20T03:07:04.973Z,18.80
2022-08-20T03:08:37.837Z,22.73
2022-08-20T03:10:10.046Z,19.17
2022-08-20T03:11:42.199Z,21.47
2022-08-20T03:13:15.555Z,20.90
2022-08-20T03:14:47.288Z,24.83
2022-08-20T03:16:19.062Z,18.30
2022-08-20T03:17:50.972Z,20.60
2022-08-20T03:19:22.978Z,20.13
2022-08-20T03:20:54.697Z,18.70
2022-08-20T03:22:26.897Z,20.93
2022-08-20T03:23:58.604Z,23.47
2022-08-20T03:25:30.420Z,22.80
2022-08-20T03:27:02.110Z,20.40
2022-08-20T03:28:34.024Z,18.50
2022-08-20T03:30:11.411Z,22.03
2022-08-20T03:31:43.125Z,17.50
2022-08-20T03:33:16.133Z,17.17
2022-08-20T03:34:47.861Z,18.33
2022-08-20T03:36:22.056Z,17.70
2022-08-20T03:38:00.214Z,21.00
2022-08-20T03:39:31.933Z,18.20
2022-08-20T03:41:04.824Z,21.20
2022-08-20T03:42:37.097Z,19.47
2022-08-20T03:44:10.078Z,16.90
2022-08-20T03:45:43.914Z,16.07
2022-08-20T03:47:15.638Z,19.33
2022-08-20T03:48:47.309Z,19.93
2022-08-20T03:50:24.736Z,18.23
2022-08-20T03:51:58.060Z,15.03
2022-08-20T03:53:31.617Z,22.57
2022-08-20T03:55:05.765Z,19.93
2022-08-20T03:56:37.610Z,19.30
2022-08-20T03:58:10.185Z,18.20
2022-08-20T03:59:44.417Z,24.63
2022-08-20T04:01:44.530Z,19.50
2022-08-20T04:03:08.749Z,16.17
2022-08-20T04:04:44.113Z,21.67
2022-08-20T04:06:17.713Z,22.07
2022-08-20T04:07:50.718Z,23.63
2022-08-20T04:09:22.482Z,22.10
2022-08-20T04:10:57.504Z,23.07
2022-08-20T04:12:29.273Z,18.47
2022-08-20T04:14:01.002Z,21.13
2022-08-20T04:15:35.350Z,24.57
2022-08-20T04:17:09.914Z,22.60
2022-08-20T04:18:41.993Z,18.67
2022-08-20T04:20:28.979Z,25.43
2022-08-20T04:22:00.727Z,23.13
2022-08-20T04:23:32.798Z,22.03
2022-08-20T04:25:05.139Z,25.20
2022-08-20T04:26:39.290Z,20.73
2022-08-20T04:28:21.481Z,19.57
2022-08-20T04:29:53.184Z,19.73
2022-08-20T04:31:25.433Z,19.50
2022-08-20T04:32:57.377Z,21.77
2022-08-20T04:34:29.192Z,22.63
2022-08-20T04:36:02.582Z,19.40
2022-08-20T04:37:34.798Z,22.37
2022-08-20T04:39:06.550Z,23.90
2022-08-20T04:40:53.425Z,20.50
2022-08-20T04:42:25.178Z,24.40
2022-08-20T04:43:58.012Z,26.03
2022-08-20T04:45:29.688Z,25.40
2022-08-20T04:47:01.921Z,25.40
2022-08-20T04:48:33.620Z,29.83
2022-08-20T04:50:09.239Z,31.80
2022-08-20T04:51:42.275Z,28.80
2022-08-20T04:53:21.675Z,32.23
2022-08-20T04:54:56.431Z,30.67
2022-08-20T04:56:31.319Z,27.40
2022-08-20T04:58:06.111Z,28.70
2022-08-20T04:59:37.812Z,31.03
2022-08-20T05:01:11.347Z,32.07
2022-08-20T05:02:44.054Z,28.50
2022-08-20T05:04:15.788Z,33.23
2022-08-20T05:05:48.023Z,27.90
2022-08-20T05:07:19.758Z,29.37
2022-08-20T05:08:53.555Z,33.20
2022-08-20T05:10:25.386Z,32.93
2022-08-20T05:11:57.048Z,35.63
2022-08-20T05:13:29.213Z,39.60
2022-08-20T05:15:00.987Z,38.17
2022-08-20T05:16:37.683Z,34.97
2022-08-20T05:18:09.575Z,32.17
2022-08-20T05:19:42.155Z,34.20
2022-08-20T05:21:15.640Z,29.60
2022-08-20T05:22:47.475Z,29.87
2022-08-20T05:24:21.400Z,29.90
2022-08-20T05:25:53.102Z,33.40
2022-08-20T05:27:27.036Z,36.90
2022-08-20T05:28:59.521Z,37.30
2022-08-20T05:30:33.344Z,41.10
2022-08-20T05:32:06.040Z,35.33
2022-08-20T05:33:38.669Z,33.37
2022-08-20T05:35:10.537Z,38.67
2022-08-20T05:36:49.824Z,34.73
2022-08-20T05:38:25.600Z,44.00
2022-08-20T05:40:00.742Z,34.77
2022-08-20T05:41:36.236Z,34.97
2022-08-20T05:43:08.796Z,32.20
2022-08-20T05:44:40.610Z,38.60
2022-08-20T05:46:13.272Z,44.93
2022-08-20T05:47:45.017Z,42.00
2022-08-20T05:49:20.250Z,45.70
2022-08-20T05:50:54.324Z,47.23
2022-08-20T05:52:26.113Z,56.37
2022-08-20T05:53:59.399Z,42.73
2022-08-20T05:55:32.216Z,46.53
2022-08-20T05:57:04.639Z,36.07
2022-08-20T05:58:37.012Z,42.13
2022-08-20T06:00:14.750Z,42.13
2022-08-20T06:01:46.517Z,42.80
2022-08-20T06:03:37.022Z,39.33
2022-08-20T06:05:09.072Z,48.10
2022-08-20T06:06:44.593Z,44.63
2022-08-20T06:08:18.185Z,43.20
2022-08-20T06:09:50.433Z,42.73
2022-08-20T06:11:22.993Z,41.43
2022-08-20T06:12:54.742Z,38.20
2022-08-20T06:14:26.708Z,42.60
2022-08-20T06:15:58.525Z,46.63
2022-08-20T06:17:39.559Z,44.70
2022-08-20T06:19:11.973Z,45.77
2022-08-20T06:20:45.931Z,49.00
2022-08-20T06:22:20.733Z,41.60
2022-08-20T06:24:02.246Z,47.30
2022-08-20T06:25:38.566Z,44.17
2022-08-20T06:27:14.553Z,45.00
2022-08-20T06:28:46.251Z,47.23
2022-08-20T06:30:18.278Z,50.33
2022-08-20T06:31:49.989Z,43.57
2022-08-20T06:33:22.145Z,45.73
2022-08-20T06:34:53.917Z,61.07
2022-08-20T06:36:26.006Z,50.93
2022-08-20T06:38:00.194Z,46.13
2022-08-20T06:39:31.950Z,46.43
2022-08-20T06:41:03.696Z,48.60
2022-08-20T06:42:39.232Z,37.87
2022-08-20T06:44:10.911Z,50.57
2022-08-20T06:45:43.500Z,48.57
2022-08-20T06:47:17.232Z,42.60
2022-08-20T06:48:50.467Z,40.13
2022-08-20T06:50:27.428Z,37.03
2022-08-20T06:51:59.128Z,38.80
2022-08-20T06:53:30.900Z,41.07
2022-08-20T06:55:02.828Z,41.60
2022-08-20T06:56:34.663Z,42.70
2022-08-20T06:58:26.612Z,44.50
2022-08-20T07:00:00.824Z,40.90
2022-08-20T07:01:32.816Z,40.77
2022-08-20T07:03:05.349Z,43.33
2022-08-20T07:04:37.380Z,40.90
2022-08-20T07:06:09.782Z,42.70
2022-08-20T07:07:46.966Z,41.77
2022-08-20T07:09:19.841Z,41.13
2022-08-20T07:10:51.909Z,43.30
2022-08-20T07:12:23.648Z,46.43
2022-08-20T07:13:57.024Z,41.70
2022-08-20T07:15:32.241Z,54.40
2022-08-20T07:17:04.377Z,36.97
2022-08-20T07:18:41.419Z,43.63
2022-08-20T07:20:15.518Z,44.50
2022-08-20T07:21:48.054Z,39.83
2022-08-20T07:23:19.783Z,46.67
2022-08-20T07:24:52.198Z,47.70
2022-08-20T07:26:24.422Z,37.00
2022-08-20T07:28:08.750Z,44.37
2022-08-20T07:29:59.174Z,43.97
2022-08-20T07:31:49.645Z,41.83
2022-08-20T07:33:21.865Z,42.07
2022-08-20T07:34:53.650Z,36.77
2022-08-20T07:36:25.629Z,42.50
2022-08-20T07:37:57.523Z,41.83
2022-08-20T07:39:31.128Z,36.17
2022-08-20T07:41:09.791Z,40.80
2022-08-20T07:42:41.591Z,40.03
2022-08-20T07:44:13.338Z,44.40
2022-08-20T07:45:48.483Z,37.53
2022-08-20T07:47:23.951Z,32.30
2022-08-20T07:48:55.651Z,38.17
2022-08-20T07:50:27.324Z,40.83
2022-08-20T07:51:59.001Z,34.90
2022-08-20T07:53:35.835Z,38.47
2022-08-20T07:55:11.429Z,39.03
2022-08-20T07:56:43.181Z,37.07
2022-08-20T07:58:19.662Z,36.70
2022-08-20T07:59:51.487Z,37.87
2022-08-20T08:01:30.298Z,33.30
2022-08-20T08:03:02.263Z,40.67
2022-08-20T08:04:34.556Z,38.23
2022-08-20T08:06:06.546Z,40.13
2022-08-20T08:07:39.597Z,41.60
2022-08-20T08:09:15.146Z,51.00
2022-08-20T08:10:48.786Z,46.17
2022-08-20T08:12:39.578Z,42.83
2022-08-20T08:14:11.896Z,38.13
2022-08-20T08:15:49.274Z,39.87
2022-08-20T08:17:21.244Z,40.53
2022-08-20T08:18:56.665Z,46.93
2022-08-20T08:20:28.632Z,44.60
2022-08-20T08:22:00.711Z,41.77
2022-08-20T08:23:32.811Z,39.67
2022-08-20T08:25:05.587Z,38.53
2022-08-20T08:26:37.775Z,42.13
2022-08-20T08:28:11.653Z,35.27
2022-08-20T08:29:44.363Z,44.57
2022-08-20T08:31:16.324Z,34.73
2022-08-20T08:33:06.680Z,43.03
2022-08-20T08:34:39.108Z,38.27
2022-08-20T08:36:13.498Z,32.53
2022-08-20T08:37:45.200Z,34.13
2022-08-20T08:39:17.025Z,36.73
2022-08-20T08:40:51.524Z,39.27
2022-08-20T08:42:48.080Z,32.03
2022-08-20T08:44:34.176Z,40.77
2022-08-20T08:46:09.835Z,41.80
2022-08-20T08:47:41.556Z,34.47
2022-08-20T08:49:19.835Z,46.40
2022-08-20T08:50:54.657Z,42.30
2022-08-20T08:52:33.053Z,33.37
2022-08-20T08:54:07.913Z,42.20
2022-08-20T08:55:40.929Z,35.37
2022-08-20T08:57:12.873Z,29.63
2022-08-20T08:58:44.663Z,40.10
2022-08-20T09:00:21.601Z,36.13
2022-08-20T09:01:57.379Z,41.70
2022-08-20T09:03:36.224Z,39.87
2022-08-20T09:05:17.285Z,40.17
2022-08-20T09:06:53.332Z,40.93
2022-08-20T09:08:32.306Z,42.00
2022-08-20T09:10:04.297Z,39.33
2022-08-20T09:11:53.033Z,40.73
2022-08-20T09:13:24.721Z,47.03
2022-08-20T09:14:57.279Z,46.87
2022-08-20T09:16:30.055Z,44.63
2022-08-20T09:18:20.794Z,41.40
2022-08-20T09:19:52.603Z,34.40
2022-08-20T09:21:24.338Z,46.70
2022-08-20T09:22:56.120Z,35.80
2022-08-20T09:24:28.184Z,37.77
2022-08-20T09:25:59.875Z,40.10
2022-08-20T09:27:31.997Z,35.70
2022-08-20T09:29:03.835Z,39.60
2022-08-20T09:30:36.098Z,39.70
2022-08-20T09:32:15.982Z,40.83
2022-08-20T09:33:49.095Z,41.20
2022-08-20T09:35:20.906Z,36.80
2022-08-20T09:36:52.586Z,42.07
2022-08-20T09:38:24.363Z,35.90
2022-08-20T09:39:56.831Z,41.70
2022-08-20T09:41:28.724Z,37.43
2022-08-20T09:43:00.744Z,35.03
2022-08-20T09:44:32.480Z,38.30
2022-08-20T09:46:04.172Z,39.80
2022-08-20T09:47:35.947Z,44.20
2022-08-20T09:49:09.461Z,35.00
2022-08-20T09:50:47.897Z,42.97
2022-08-20T09:52:22.890Z,36.47
2022-08-20T09:53:54.887Z,36.27
2022-08-20T09:55:41.161Z,37.57
2022-08-20T09:57:14.801Z,37.40
2022-08-20T09:58:52.843Z,37.00
2022-08-20T10:00:25.023Z,35.13
2022-08-20T10:01:56.978Z,45.50
2022-08-20T10:03:28.803Z,34.23
2022-08-20T10:05:00.788Z,35.97
2022-08-20T10:06:37.172Z,38.80
2022-08-20T10:08:11.082Z,41.10
2022-08-20T10:09:43.208Z,39.60
2022-08-20T10:11:15.635Z,42.20
2022-08-20T10:12:50.495Z,38.50
2022-08-20T10:14:24.569Z,44.83
2022-08-20T10:15:56.960Z,43.13
2022-08-20T10:17:28.727Z,36.87
2022-08-20T10:19:00.754Z,42.27
2022-08-20T10:20:32.645Z,41.33
2022-08-20T10:22:04.767Z,39.30
2022-08-20T10:23:36.464Z,50.03
2022-08-20T10:25:08.920Z,51.37
2022-08-20T10:26:40.657Z,36.80
2022-08-20T10:28:12.387Z,41.20
2022-08-20T10:29:47.019Z,39.43
2022-08-20T10:31:19.035Z,45.40
2022-08-20T10:32:50.775Z,42.20
2022-08-20T10:34:23.042Z,44.67
2022-08-20T10:35:59.759Z,39.00
2022-08-20T10:37:31.747Z,42.93
2022-08-20T10:39:03.510Z,44.60
2022-08-20T10:40:35.351Z,45.73
2022-08-20T10:42:07.207Z,42.70
2022-08-20T10:43:39.012Z,44.30
2022-08-20T10:45:12.647Z,47.13
2022-08-20T10:46:48.183Z,43.30
2022-08-20T10:48:21.701Z,44.47
2022-08-20T10:49:56.202Z,44.90
2022-08-20T10:51:32.218Z,38.83
2022-08-20T10:53:04.632Z,38.50
2022-08-20T10:54:36.527Z,37.43
2022-08-20T10:56:10.830Z,43.83
2022-08-20T10:57:45.181Z,38.70
2022-08-20T10:59:16.970Z,40.73
2022-08-20T11:00:48.728Z,39.90
2022-08-20T11:02:24.261Z,42.87
2022-08-20T11:03:56.118Z,37.10
2022-08-20T11:05:28.054Z,34.37
2022-08-20T11:07:18.465Z,32.77
2022-08-20T11:08:52.724Z,34.63
2022-08-20T11:10:27.051Z,39.63
2022-08-20T11:11:58.887Z,37.30
2022-08-20T11:13:30.690Z,41.23
2022-08-20T11:15:02.541Z,38.00
2022-08-20T11:16:34.233Z,36.27
2022-08-20T11:18:07.959Z,37.70
2022-08-20T11:19:45.165Z,36.67
2022-08-20T11:21:16.834Z,39.10
2022-08-20T11:22:48.577Z,36.37
2022-08-20T11:24:20.370Z,35.50
2022-08-20T11:25:52.714Z,35.60
2022-08-20T11:27:45.077Z,39.73
2022-08-20T11:29:17.292Z,35.27
2022-08-20T11:30:50.059Z,34.10
2022-08-20T11:32:23.207Z,34.97
2022-08-20T11:33:57.802Z,35.30
2022-08-20T11:35:49.052Z,33.93
2022-08-20T11:37:24.471Z,30.77
2022-08-20T11:38:57.357Z,33.60
2022-08-20T11:40:31.326Z,29.73
2022-08-20T11:42:03.413Z,33.37
2022-08-20T11:43:35.157Z,43.07
2022-08-20T11:45:07.325Z,33.20
2022-08-20T11:46:39.103Z,38.47
2022-08-20T11:48:10.875Z,28.60
2022-08-20T11:49:43.380Z,28.43
2022-08-20T11:51:15.355Z,39.80
2022-08-20T11:52:47.229Z,26.30
2022-08-20T11:54:19.511Z,33.27
2022-08-20T11:55:51.324Z,29.13
2022-08-20T11:57:29.543Z,33.70
2022-08-20T11:59:01.400Z,28.53
2022-08-20T12:00:34.422Z,34.13
2022-08-20T12:02:11.628Z,38.67
2022-08-20T12:03:45.023Z,32.73
2022-08-20T12:05:16.931Z,29.90
2022-08-20T12:06:48.651Z,26.93
2022-08-20T12:08:27.374Z,24.90
2022-08-20T12:10:03.471Z,29.10
2022-08-20T12:11:35.173Z,28.73
2022-08-20T12:13:07.863Z,23.97
2022-08-20T12:14:39.682Z,22.67
2022-08-20T12:16:11.403Z,28.00
2022-08-20T12:17:43.155Z,24.30
2022-08-20T12:19:14.867Z,26.10
2022-08-20T12:20:46.825Z,24.50
2022-08-20T12:22:24.607Z,27.50
2022-08-20T12:23:57.133Z,26.57
2022-08-20T12:25:28.891Z,24.83
2022-08-20T12:27:15.452Z,27.13
2022-08-20T12:28:47.222Z,20.20
2022-08-20T12:30:21.650Z,25.27
2022-08-20T12:31:53.332Z,22.33
2022-08-20T12:33:25.392Z,25.30
2022-08-20T12:34:57.967Z,18.43
2022-08-20T12:36:29.671Z,20.63
2022-08-20T12:38:06.069Z,20.43
2022-08-20T12:39:43.128Z,19.60
2022-08-20T12:41:14.820Z,29.13
2022-08-20T12:42:46.560Z,19.63
2022-08-20T12:44:18.615Z,22.70
2022-08-20T12:45:50.321Z,22.43
2022-08-20T12:47:23.856Z,16.93
2022-08-20T12:48:55.596Z,42.57
2022-08-20T12:50:31.271Z,31.90
2022-08-20T12:52:04.166Z,39.57
2022-08-20T12:53:37.152Z,35.93
2022-08-20T12:55:10.822Z,26.80
2022-08-20T12:56:42.593Z,23.83
2022-08-20T12:58:14.483Z,27.67
2022-08-20T12:59:46.209Z,22.47
2022-08-20T13:01:18.011Z,19.10
2022-08-20T13:02:50.857Z,25.70
2022-08-20T13:04:23.207Z,16.57
2022-08-20T13:05:55.036Z,29.63
2022-08-20T13:07:26.764Z,16.00
2022-08-20T13:08:59.491Z,19.57
2022-08-20T13:10:33.685Z,15.47
2022-08-20T13:12:05.721Z,18.97
2022-08-20T13:13:37.549Z,15.03
2022-08-20T13:15:09.906Z,11.60
2022-08-20T13:16:41.685Z,14.20
2022-08-20T13:18:13.373Z,17.73
2022-08-20T13:19:45.993Z,11.83
2022-08-20T13:21:20.084Z,15.03
2022-08-20T13:22:55.612Z,11.27
2022-08-20T13:24:27.499Z,12.20
2022-08-20T13:25:59.403Z,14.23
2022-08-20T13:27:31.184Z,10.40
2022-08-20T13:29:03.100Z,16.10
2022-08-20T13:30:38.592Z,10.83
2022-08-20T13:32:10.533Z,12.10
2022-08-20T13:33:42.220Z,12.47
2022-08-20T13:35:17.737Z,18.83
2022-08-20T13:36:49.461Z,11.90
2022-08-20T13:38:21.223Z,18.90
2022-08-20T13:39:54.250Z,14.67
2022-08-20T13:41:26.123Z,17.33
2022-08-20T13:42:58.052Z,13.20
2022-08-20T13:44:32.957Z,15.83
2022-08-20T13:46:06.353Z,15.27
2022-08-20T13:47:40.697Z,15.93
2022-08-20T13:49:12.417Z,15.87
2022-08-20T13:50:46.787Z,15.80
2022-08-20T13:52:19.147Z,12.07
2022-08-20T13:53:53.250Z,21.57
2022-08-20T13:55:27.212Z,10.47
2022-08-20T13:57:13.821Z,15.73
2022-08-20T13:58:45.570Z,13.70
2022-08-20T14:00:21.363Z,10.63
2022-08-20T14:02:07.030Z,13.90
2022-08-20T14:03:39.063Z,11.57
2022-08-20T14:05:17.265Z,15.77
2022-08-20T14:06:50.742Z,17.33
2022-08-20T14:08:24.315Z,22.13
2022-08-20T14:09:58.646Z,11.40
2022-08-20T14:11:30.397Z,10.00
2022-08-20T14:13:03.365Z,15.27
2022-08-20T14:14:35.439Z,14.23
2022-08-20T14:16:07.283Z,11.60
2022-08-20T14:17:58.459Z,11.50
2022-08-20T14:19:30.343Z,9.47
2022-08-20T14:21:02.091Z,14.73
2022-08-20T14:22:36.400Z,10.00
2022-08-20T14:24:08.439Z,8.63
2022-08-20T14:25:41.027Z,15.03
2022-08-20T14:27:14.095Z,16.90
2022-08-20T14:28:45.767Z,8.93
2022-08-20T14:30:23.817Z,10.70
2022-08-20T14:31:55.512Z,8.87
2022-08-20T14:33:27.244Z,10.70
2022-08-20T14:34:59.390Z,11.97
2022-08-20T14:36:31.155Z,10.83
2022-08-20T14:38:05.637Z,21.13
2022-08-20T14:39:37.522Z,11.63
2022-08-20T14:41:09.285Z,10.60
2022-08-20T14:42:41.904Z,17.17
2022-08-20T14:44:15.120Z,18.73
2022-08-20T14:45:46.835Z,11.03
2022-08-20T14:47:27.769Z,13.07
2022-08-20T14:48:59.464Z,12.30
2022-08-20T14:50:33.659Z,9.40
2022-08-20T14:52:06.021Z,10.17
2022-08-20T14:53:40.442Z,8.50
2022-08-20T14:55:15.680Z,12.10
2022-08-20T14:56:47.390Z,15.30
2022-08-20T14:58:19.304Z,16.17
2022-08-20T14:59:53.036Z,15.60
2022-08-20T15:01:24.878Z,12.27
2022-08-20T15:02:57.372Z,15.17
2022-08-20T15:04:29.426Z,15.90
2022-08-20T15:06:01.952Z,16.57
2022-08-20T15:07:38.409Z,15.77
2022-08-20T15:09:10.081Z,11.43
2022-08-20T15:10:41.855Z,11.20
2022-08-20T15:12:13.522Z,15.90
2022-08-20T15:13:45.193Z,13.77
2022-08-20T15:15:18.197Z,13.03
2022-08-20T15:16:50.104Z,11.87
2022-08-20T15:18:24.984Z,10.53
2022-08-20T15:19:57.465Z,9.63
2022-08-20T15:21:29.379Z,13.73
2022-08-20T15:23:16.668Z,13.40
2022-08-20T15:24:48.749Z,14.03
2022-08-20T15:26:20.917Z,16.63
2022-08-20T15:27:58.316Z,18.30
2022-08-20T15:29:32.549Z,14.70
2022-08-20T15:31:09.612Z,14.67
2022-08-20T15:32:41.437Z,14.93
2022-08-20T15:34:17.766Z,13.10
2022-08-20T15:35:49.869Z,23.63
2022-08-20T15:37:23.825Z,13.63
2022-08-20T15:38:55.578Z,15.90
2022-08-20T15:40:29.724Z,12.80
2022-08-20T15:42:01.519Z,11.80
2022-08-20T15:43:33.891Z,12.67
2022-08-20T15:45:07.635Z,14.23
2022-08-20T15:46:40.776Z,10.50
2022-08-20T15:48:18.788Z,15.70
2022-08-20T15:49:55.703Z,18.60
2022-08-20T15:51:33.919Z,19.60
2022-08-20T15:53:16.214Z,14.73
2022-08-20T15:54:48.388Z,16.17
2022-08-20T15:56:48.398Z,9.10
2022-08-20T15:58:29.809Z,16.10
2022-08-20T16:00:19.943Z,16.10
2022-08-20T16:02:06.901Z,8.40
2022-08-20T16:03:47.628Z,9.80
2022-08-20T16:05:28.302Z,15.73
2022-08-20T16:07:08.659Z,14.23
2022-08-20T16:08:59.383Z,15.53
2022-08-20T16:10:58.895Z,11.27
2022-08-20T16:12:38.229Z,11.20
2022-08-20T16:14:09.877Z,14.40
2022-08-20T16:15:47.547Z,12.43
2022-08-20T16:17:34.369Z,11.70
2022-08-20T16:19:10.537Z,14.93
2022-08-20T16:20:47.732Z,12.43
2022-08-20T16:22:20.440Z,16.40
2022-08-20T16:23:52.204Z,9.00
2022-08-20T16:25:29.222Z,12.93
2022-08-20T16:27:18.898Z,12.23
2022-08-20T16:29:11.978Z,10.70
2022-08-20T16:30:48.219Z,12.60
2022-08-20T16:32:51.897Z,13.50
2022-08-20T16:34:33.788Z,11.83
2022-08-20T16:36:18.353Z,15.17
2022-08-20T16:37:56.409Z,13.93
2022-08-20T16:39:37.031Z,16.40
2022-08-20T16:41:33.719Z,13.70
2022-08-20T16:43:07.024Z,13.83
2022-08-20T16:44:44.610Z,14.63
2022-08-20T16:46:21.963Z,10.30
2022-08-20T16:48:06.840Z,9.50
2022-08-20T16:49:54.077Z,10.33
2022-08-20T16:51:52.122Z,11.67
2022-08-20T16:53:25.632Z,16.67
2022-08-20T16:54:57.582Z,17.10
2022-08-20T16:56:35.470Z,13.10
2022-08-20T16:58:07.705Z,12.73
2022-08-20T16:59:58.173Z,12.10
2022-08-20T17:01:30.049Z,11.13
2022-08-20T17:03:08.309Z,11.93
2022-08-20T17:04:59.594Z,12.17
2022-08-20T17:06:46.011Z,13.03
2022-08-20T17:08:24.563Z,9.43
2022-08-20T17:10:14.697Z,12.80
2022-08-20T17:11:46.738Z,9.47
2022-08-20T17:13:23.792Z,10.80
2022-08-20T17:14:59.726Z,13.80
2022-08-20T17:16:37.885Z,12.43
2022-08-20T17:18:37.488Z,12.10
2022-08-20T17:20:20.233Z,12.00
2022-08-20T17:21:52.510Z,9.60
2022-08-20T17:23:24.897Z,11.37
2022-08-20T17:24:57.535Z,9.67
2022-08-20T17:26:58.443Z,13.77
2022-08-20T17:28:35.242Z,21.23
2022-08-20T17:30:38.337Z,6.90
2022-08-20T17:32:26.893Z,14.60
2022-08-20T17:33:58.689Z,12.50
2022-08-20T17:35:41.754Z,10.60
2022-08-20T17:37:22.690Z,17.77
2022-08-20T17:39:00.368Z,11.17
2022-08-20T17:40:41.352Z,11.50
2022-08-20T17:42:21.625Z,12.03
2022-08-20T17:44:06.963Z,13.20
2022-08-20T17:45:44.793Z,14.20
2022-08-20T17:47:18.702Z,9.53
2022-08-20T17:48:51.493Z,12.23
2022-08-20T17:50:35.153Z,12.83
2022-08-20T17:52:15.993Z,12.07
2022-08-20T17:54:07.414Z,13.93
2022-08-20T17:55:40.684Z,14.10
2022-08-20T17:57:16.611Z,19.90
2022-08-20T17:59:05.680Z,6.23
2022-08-20T18:00:38.492Z,9.83
2022-08-20T18:02:12.811Z,16.73
2022-08-20T18:03:48.152Z,13.70
2022-08-20T18:05:21.672Z,8.90
2022-08-20T18:07:19.711Z,10.27
2022-08-20T18:08:55.748Z,12.87
2022-08-20T18:10:27.989Z,10.50
2022-08-20T18:12:06.625Z,12.03
2022-08-20T18:13:56.360Z,10.47
2022-08-20T18:15:54.700Z,11.60
2022-08-20T18:18:08.080Z,11.67
2022-08-20T18:20:36.880Z,11.13
2022-08-20T18:22:13.312Z,14.93
2022-08-20T18:23:50.045Z,7.97
2022-08-20T18:25:34.236Z,8.27
2022-08-20T18:27:13.767Z,13.30
2022-08-20T18:29:09.017Z,11.57
2022-08-20T18:31:08.889Z,8.97
2022-08-20T18:32:40.701Z,9.83
2022-08-20T18:34:19.629Z,8.73
2022-08-20T18:35:51.385Z,6.33
2022-08-20T18:37:27.544Z,10.87
2022-08-20T18:39:23.296Z,22.73
2022-08-20T18:41:25.828Z,11.10
2022-08-20T18:42:58.827Z,13.47
2022-08-20T18:44:45.640Z,11.07
2022-08-20T18:46:24.089Z,11.63
2022-08-20T18:47:56.313Z,12.93
2022-08-20T18:49:34.650Z,14.63
2022-08-20T18:51:10.601Z,13.93
2022-08-20T18:52:49.051Z,8.60
2022-08-20T18:54:30.931Z,9.57
2022-08-20T18:56:13.471Z,9.77
2022-08-20T18:57:53.341Z,13.37
2022-08-20T18:59:25.191Z,22.10
2022-08-20T19:00:59.925Z,7.53
2022-08-20T19:02:37.004Z,13.00
2022-08-20T19:04:26.897Z,9.47
2022-08-20T19:06:19.386Z,5.87
2022-08-20T19:07:52.583Z,10.90
2022-08-20T19:09:39.755Z,9.57
2022-08-20T19:11:52.911Z,10.27
2022-08-20T19:13:39.758Z,8.67
2022-08-20T19:15:18.721Z,9.97
2022-08-20T19:17:09.373Z,12.73
2022-08-20T19:18:50.440Z,8.33
2022-08-20T19:20:26.488Z,9.87
2022-08-20T19:22:00.936Z,14.00
2022-08-20T19:23:39.816Z,9.03
2022-08-20T19:25:27.732Z,9.90
2022-08-20T19:27:04.655Z,6.33
2022-08-20T19:28:46.956Z,15.60
2022-08-20T19:30:38.382Z,8.80
2022-08-20T19:32:22.109Z,14.07
2022-08-20T19:34:18.069Z,9.60
2022-08-20T19:35:52.341Z,11.33
2022-08-20T19:37:35.244Z,6.93
2022-08-20T19:39:20.549Z,11.13
2022-08-20T19:41:08.888Z,7.93
2022-08-20T19:42:43.854Z,11.50
2022-08-20T19:44:46.574Z,14.30
2022-08-20T19:46:27.042Z,14.97
2022-08-20T19:48:16.376Z,11.73
2022-08-20T19:50:00.278Z,10.27
2022-08-20T19:52:09.023Z,5.53
2022-08-20T19:53:47.677Z,8.93
2022-08-20T19:55:34.573Z,6.77
2022-08-20T19:57:07.573Z,9.07
2022-08-20T19:58:39.699Z,11.63
2022-08-20T20:00:12.880Z,8.43
2022-08-20T20:02:00.185Z,9.23
2022-08-20T20:03:35.075Z,9.07
2022-08-20T20:05:09.178Z,11.63
2022-08-20T20:06:47.517Z,12.43
2022-08-20T20:08:19.978Z,9.47
2022-08-20T20:09:55.289Z,12.63
2022-08-20T20:11:37.045Z,12.90
2022-08-20T20:13:16.447Z,6.63
2022-08-20T20:14:50.887Z,6.93
2022-08-20T20:16:22.715Z,12.50
2022-08-20T20:17:54.783Z,11.77
2022-08-20T20:19:27.975Z,9.13
2022-08-20T20:21:22.078Z,8.33
2022-08-20T20:22:56.423Z,8.47
2022-08-20T20:24:41.613Z,6.73
2022-08-20T20:26:17.885Z,9.70
2022-08-20T20:28:11.035Z,9.53
2022-08-20T20:29:43.620Z,8.50
2022-08-20T20:31:41.703Z,9.17
2022-08-20T20:33:29.539Z,8.03
2022-08-20T20:35:04.781Z,5.77
2022-08-20T20:36:43.438Z,9.93
2022-08-20T20:38:26.885Z,8.57
2022-08-20T20:40:19.076Z,12.47
2022-08-20T20:41:54.060Z,9.13